Time;durP1;ratioP1;P1;durP2;ratioP2;P2;SDS_P1;SDS_P2;PMS_P1;PMS_P2;Temp;Humidity;BMP_temperature;BMP_pressure;BME280_temperature;BME280_humidity;BME280_pressure;Samples;Min_cycle;Max_cycle;Signal;HPM_P1;HPM_P2
2021/07/02 00:02:07;;;;;;;17.02;9.85;;;;;;;20.51;100.00;99385.25;3566315;40;20034;-70
2021/07/02 00:04:34;;;;;;;21.13;10.38;;;;;;;20.35;100.00;99377.06;3560264;40;20040;-72
2021/07/02 00:07:00;;;;;;;18.77;9.93;;;;;;;20.01;100.00;99370.22;3576166;40;20041;-70
2021/07/02 00:09:26;;;;;;;16.85;9.32;;;;;;;20.51;100.00;99370.59;3566333;40;20040;-70
2021/07/02 00:11:52;;;;;;;22.15;10.25;;;;;;;20.46;100.00;99356.41;3577116;40;20030;-69
2021/07/02 00:14:17;;;;;;;27.70;9.85;;;;;;;20.66;100.00;99356.44;3575797;40;20037;-69
2021/07/02 00:16:46;;;;;;;22.35;10.15;;;;;;;20.64;100.00;99358.34;3566380;40;20030;-70
2021/07/02 00:19:12;;;;;;;22.02;9.07;;;;;;;20.82;100.00;99350.09;3576532;40;20343;-71
2021/07/02 00:21:37;;;;;;;16.58;9.27;;;;;;;20.65;100.00;99360.00;3567386;40;20038;-71
2021/07/02 00:26:50;;;;;;;21.95;9.73;;;;;;;20.35;100.00;99354.66;3575382;40;20048;-69
2021/07/02 00:29:15;;;;;;;15.55;8.82;;;;;;;20.46;100.00;99356.41;3567344;40;20441;-75
2021/07/02 00:31:41;;;;;;;14.85;9.10;;;;;;;20.39;100.00;99356.06;3565203;40;20038;-71
2021/07/02 00:34:07;;;;;;;21.50;9.50;;;;;;;20.30;100.00;99351.59;3565686;40;20030;-70
2021/07/02 00:36:33;;;;;;;16.85;8.70;;;;;;;20.15;100.00;99337.28;3555380;40;20040;-70
2021/07/02 00:39:00;;;;;;;19.05;8.90;;;;;;;20.54;100.00;99341.13;3564381;40;20033;-69
2021/07/02 00:41:26;;;;;;;13.88;8.32;;;;;;;20.77;100.00;99336.69;3564708;40;20038;-70
2021/07/02 00:43:53;;;;;;;16.73;8.40;;;;;;;20.40;100.00;99331.84;3564340;40;20038;-74
2021/07/02 00:46:20;;;;;;;15.65;8.20;;;;;;;20.56;100.00;99321.16;3565019;40;20030;-70
2021/07/02 00:48:45;;;;;;;15.93;7.88;;;;;;;20.64;100.00;99316.19;3564102;40;20433;-70
2021/07/02 00:51:11;;;;;;;15.68;8.45;;;;;;;20.29;100.00;99316.41;3607203;39;20113;-72
2021/07/02 00:53:38;;;;;;;18.92;8.93;;;;;;;20.74;100.00;99311.91;3562784;40;20080;-70
2021/07/02 00:56:05;;;;;;;15.05;7.97;;;;;;;20.73;100.00;99310.28;3562328;40;20062;-71
2021/07/02 00:58:34;;;;;;;13.10;6.78;;;;;;;20.96;100.00;99311.00;3553975;40;20038;-73
2021/07/02 01:01:00;;;;;;;12.88;7.35;;;;;;;20.56;100.00;99305.66;3553829;40;20122;-70
2021/07/02 01:03:27;;;;;;;13.02;7.10;;;;;;;21.08;100.00;99310.03;3563016;40;20301;-70
2021/07/02 01:05:54;;;;;;;12.38;6.95;;;;;;;20.43;100.00;99308.38;3553704;40;20026;-70
2021/07/02 01:08:20;;;;;;;15.70;7.00;;;;;;;20.71;100.00;99313.00;3560241;40;20057;-71
2021/07/02 01:10:46;;;;;;;10.02;6.68;;;;;;;20.68;100.00;99315.00;3573039;40;20030;-70
2021/07/02 01:13:12;;;;;;;13.35;6.03;;;;;;;21.12;100.00;99324.34;3573328;40;20042;-70
2021/07/02 01:15:37;;;;;;;11.77;6.22;;;;;;;21.07;100.00;99318.75;3563420;40;20048;-70
2021/07/02 01:18:08;;;;;;;11.02;5.82;;;;;;;21.15;100.00;99322.34;3554124;40;20413;-72
2021/07/02 01:20:34;;;;;;;12.53;5.80;;;;;;;20.83;100.00;99331.03;3564186;40;20046;-70
2021/07/02 01:23:00;;;;;;;8.82;5.90;;;;;;;21.18;100.00;99324.69;3564427;40;20249;-73
2021/07/02 01:25:33;;;;;;;7.75;4.90;;;;;;;21.31;100.00;99317.53;3564261;40;20042;-70
2021/07/02 01:34:00;;;;;;;10.88;5.95;;;;;;;21.37;100.00;99342.09;3562219;39;20061;-71
2021/07/02 01:36:27;;;;;;;13.38;5.28;;;;;;;21.53;100.00;99352.81;3573475;40;20032;-71
2021/07/02 01:38:54;;;;;;;11.65;5.82;;;;;;;21.24;100.00;99355.22;3575307;40;20044;-69
2021/07/02 01:41:20;;;;;;;11.32;5.38;;;;;;;21.55;100.00;99351.72;3574713;40;20037;-70
2021/07/02 01:43:46;;;;;;;8.90;5.50;;;;;;;21.35;100.00;99357.72;3574617;40;20033;-71
2021/07/02 01:46:12;;;;;;;12.02;5.10;;;;;;;21.45;100.00;99361.19;3573891;40;20414;-70
2021/07/02 01:48:37;;;;;;;15.93;5.32;;;;;;;21.77;100.00;99352.53;3609588;22;20026;-73
2021/07/02 01:51:03;;;;;;;12.50;4.75;;;;;;;21.64;99.21;99357.91;3576048;40;20034;-70
2021/07/02 01:53:29;;;;;;;7.10;4.65;;;;;;;21.47;98.99;99346.38;3574112;40;20033;-70
2021/07/02 01:55:55;;;;;;;13.55;4.80;;;;;;;21.79;97.13;99354.03;3573538;40;20029;-73
2021/07/02 01:58:20;;;;;;;11.55;4.63;;;;;;;21.36;98.39;99345.63;3571783;40;20145;-70
2021/07/02 02:00:46;;;;;;;11.20;4.80;;;;;;;21.66;97.05;99350.84;3572766;40;20037;-71
2021/07/02 02:03:13;;;;;;;9.63;4.80;;;;;;;21.75;95.34;99351.84;3573158;40;20095;-71
2021/07/02 02:05:40;;;;;;;14.88;5.82;;;;;;;20.93;99.42;99350.03;3573494;40;20046;-70
2021/07/02 02:08:06;;;;;;;24.25;8.27;;;;;;;19.77;100.00;99358.25;3575741;40;20136;-70
2021/07/02 02:10:32;;;;;;;24.80;8.00;;;;;;;19.95;100.00;99350.88;3576162;40;20030;-70
2021/07/02 02:12:57;;;;;;;23.92;8.07;;;;;;;20.33;100.00;99350.53;3566604;40;20042;-71
2021/07/02 02:15:23;;;;;;;29.90;9.05;;;;;;;20.02;100.00;99362.41;3576244;40;20079;-71
2021/07/02 02:17:49;;;;;;;24.40;10.10;;;;;;;19.75;100.00;99373.03;3575961;40;20428;-70
2021/07/02 02:20:16;;;;;;;29.15;10.60;;;;;;;19.69;100.00;99390.72;3577015;40;20034;-71
2021/07/02 02:22:43;;;;;;;25.92;10.60;;;;;;;19.74;100.00;99375.75;3567603;39;20300;-70
2021/07/02 02:25:09;;;;;;;30.63;11.23;;;;;;;19.62;100.00;99382.63;3575711;40;20040;-68
2021/07/02 02:27:37;;;;;;;27.42;12.20;;;;;;;19.33;100.00;99380.56;3576346;40;20041;-71
2021/07/02 02:30:06;;;;;;;34.40;13.25;;;;;;;19.36;100.00;99382.91;3576791;40;20037;-72
2021/07/02 02:32:34;;;;;;;29.33;13.00;;;;;;;19.28;100.00;99377.47;3574861;40;20060;-71
2021/07/02 02:34:59;;;;;;;32.83;15.00;;;;;;;19.41;100.00;99384.22;3575084;39;20396;-70
2021/07/02 02:37:25;;;;;;;27.75;13.93;;;;;;;19.68;100.00;99404.56;3574302;40;20047;-70
2021/07/02 02:39:50;;;;;;;29.58;14.23;;;;;;;19.82;100.00;99406.94;3574462;40;20508;-70
2021/07/02 02:42:16;;;;;;;27.23;13.85;;;;;;;19.69;100.00;99408.78;3573891;40;20049;-72
2021/07/02 02:44:43;;;;;;;27.65;14.43;;;;;;;19.40;100.00;99403.22;3575022;40;20044;-70
2021/07/02 02:47:11;;;;;;;32.90;16.98;;;;;;;18.96;100.00;99413.28;3577140;40;20490;-73
2021/07/02 02:52:59;;;;;;;24.23;14.75;;;;;;;19.44;100.00;99425.25;3583550;39;20040;-70
2021/07/02 02:55:25;;;;;;;31.30;16.02;;;;;;;19.53;100.00;99423.78;3566936;40;20026;-69
2021/07/02 02:57:50;;;;;;;24.67;16.25;;;;;;;20.07;100.00;99429.13;3568072;40;20408;-70
2021/07/02 03:00:16;;;;;;;28.75;16.80;;;;;;;19.53;100.00;99423.78;3560597;40;20050;-69
2021/07/02 03:02:42;;;;;;;24.70;16.75;;;;;;;19.45;100.00;99423.50;3557459;40;20454;-70
2021/07/02 03:05:10;;;;;;;27.85;16.17;;;;;;;19.50;100.00;99434.28;3566443;40;20070;-71
2021/07/02 03:07:36;;;;;;;28.52;16.08;;;;;;;19.51;100.00;99431.59;3572926;40;20441;-71
2021/07/02 03:10:04;;;;;;;27.45;16.67;;;;;;;19.54;100.00;99446.84;3575811;40;20029;-71
2021/07/02 03:12:30;;;;;;;22.80;15.63;;;;;;;19.83;100.00;99436.97;3565796;40;20038;-72
2021/07/02 03:14:56;;;;;;;23.45;15.18;;;;;;;20.02;100.00;99431.25;3565672;40;20100;-69
2021/07/02 03:17:22;;;;;;;25.02;15.40;;;;;;;19.99;100.00;99428.88;3563542;40;20038;-71
2021/07/02 03:19:49;;;;;;;29.70;16.08;;;;;;;19.71;100.00;99438.69;3567736;39;20034;-70
2021/07/02 03:22:15;;;;;;;26.27;15.20;;;;;;;19.94;100.00;99441.31;3564501;40;20095;-69
2021/07/02 03:24:41;;;;;;;25.48;15.10;;;;;;;19.95;100.00;99441.19;3563606;39;20308;-69
2021/07/02 03:27:08;;;;;;;21.65;14.75;;;;;;;20.13;100.00;99437.25;3574980;39;20041;-69
2021/07/02 03:29:33;;;;;;;24.83;14.77;;;;;;;20.40;100.00;99445.47;3575121;40;20125;-71
2021/07/02 03:32:12;;;;;;;25.33;14.45;;;;;;;20.27;100.00;99452.53;3574896;40;20049;-70
2021/07/02 03:34:43;;;;;;;22.70;13.90;;;;;;;20.50;100.00;99453.38;3573330;39;20070;-70
2021/07/02 03:37:09;;;;;;;29.45;15.15;;;;;;;20.48;100.00;99456.06;3583648;40;20035;-74
2021/07/02 03:39:38;;;;;;;28.25;14.23;;;;;;;20.33;100.00;99446.91;3577416;40;20122;-73
2021/07/02 03:42:05;;;;;;;25.50;13.80;;;;;;;20.46;100.00;99457.13;3562997;39;20127;-70
2021/07/02 03:44:30;;;;;;;20.58;13.55;;;;;;;20.72;100.00;99463.66;3564572;40;20030;-75
2021/07/02 03:46:58;;;;;;;24.02;13.50;;;;;;;20.80;100.00;99460.50;3565064;40;20052;-70
2021/07/02 03:49:23;;;;;;;22.52;13.32;;;;;;;20.52;100.00;99461.81;3566077;40;20129;-70
2021/07/02 03:51:49;;;;;;;24.23;12.82;;;;;;;21.22;100.00;99462.28;3564568;40;20046;-70
2021/07/02 04:07:07;;;;;;;26.08;13.07;;;;;;;21.74;100.00;99464.91;3565894;40;20094;-71
2021/07/02 04:20:57;;;;;;;22.60;15.02;;;;;;;21.22;100.00;99473.47;1208857;22;21527;-73
2021/07/02 04:28:39;;;;;;;25.25;15.18;;;;;;;21.23;100.00;99474.31;1361800;22;20217;-79
2021/07/02 04:51:01;;;;;;;22.50;13.60;;;;;;;23.72;100.00;99500.41;1202509;22;20278;31
2021/07/02 04:59:10;;;;;;;21.65;14.20;;;;;;;22.97;100.00;99505.38;3784807;22;20043;-72
2021/07/02 05:01:39;;;;;;;27.50;14.00;;;;;;;23.32;100.00;99502.31;3644352;22;20084;-72
2021/07/02 05:04:12;;;;;;;19.60;12.65;;;;;;;23.12;100.00;99503.19;3678321;22;20056;-77
2021/07/02 05:12:14;;;;;;;23.63;14.25;;;;;;;23.73;100.00;99499.44;1419310;22;20293;-72
2021/07/02 05:20:59;;;;;;;21.63;13.73;;;;;;;24.06;96.91;99511.22;3808297;23;20569;-76
2021/07/02 05:23:27;;;;;;;21.53;12.27;;;;;;;24.78;93.87;99512.22;3706182;22;20034;-73
2021/07/02 05:28:29;;;;;;;17.05;9.07;;;;;;;24.67;89.77;99514.16;3607715;39;20032;-71
2021/07/02 05:30:55;;;;;;;15.43;7.70;;;;;;;25.25;84.48;99507.72;3596016;40;20044;-73
2021/07/02 05:33:22;;;;;;;15.82;8.02;;;;;;;24.92;85.61;99516.13;3572686;40;20049;-73
2021/07/02 05:35:48;;;;;;;12.52;7.65;;;;;;;24.83;84.58;99522.19;3579656;40;20385;-72
2021/07/02 05:38:14;;;;;;;19.60;7.93;;;;;;;25.16;83.66;99519.00;3579121;40;20038;-72
2021/07/02 05:40:40;;;;;;;12.38;6.85;;;;;;;25.15;84.26;99534.75;3579327;40;20033;-73
2021/07/02 05:43:06;;;;;;;21.23;10.65;;;;;;;25.34;90.31;99522.44;3581289;40;20030;-71
2021/07/02 05:45:32;;;;;;;17.75;12.82;;;;;;;24.85;96.99;99530.69;3560965;39;20039;-72
2021/07/02 05:48:00;;;;;;;20.25;13.30;;;;;;;24.99;95.83;99527.59;3575276;39;20057;-71
2021/07/02 05:50:28;;;;;;;21.77;12.48;;;;;;;25.59;94.37;99526.94;3571644;40;20067;-72
2021/07/02 05:52:57;;;;;;;16.55;11.88;;;;;;;25.45;90.65;99524.84;3570891;40;20153;-71
2021/07/02 05:55:24;;;;;;;16.65;10.48;;;;;;;25.95;88.10;99534.75;3580718;40;20030;-73
2021/07/02 05:57:51;;;;;;;13.73;10.57;;;;;;;25.60;88.48;99522.56;3580495;39;20025;-70
2021/07/02 06:00:18;;;;;;;16.08;8.23;;;;;;;26.08;81.21;99532.59;3579993;40;20066;-71
2021/07/02 06:02:46;;;;;;;15.98;8.45;;;;;;;25.16;84.51;99539.81;3580147;40;20075;-71
2021/07/02 06:07:48;;;;;;;14.38;7.82;;;;;;;24.99;85.19;99543.22;3601760;40;20057;-71
2021/07/02 06:10:15;;;;;;;12.48;7.18;;;;;;;25.31;83.68;99530.56;3602240;40;20041;-71
2021/07/02 06:12:41;;;;;;;15.23;6.88;;;;;;;25.24;82.85;99532.09;3600401;40;20036;-72
2021/07/02 06:15:07;;;;;;;12.32;6.97;;;;;;;25.26;81.73;99532.78;3589771;40;20059;-72
2021/07/02 06:17:33;;;;;;;12.95;7.03;;;;;;;25.70;78.69;99529.34;3600104;40;20032;-70
2021/07/02 06:19:59;;;;;;;10.85;7.00;;;;;;;26.22;75.55;99527.66;3599452;40;20043;-71
2021/07/02 06:22:25;;;;;;;13.35;6.80;;;;;;;25.94;74.08;99530.50;3601411;40;20041;-71
2021/07/02 06:24:50;;;;;;;10.18;6.57;;;;;;;25.72;74.71;99534.38;3602519;39;20048;-71
2021/07/02 06:27:16;;;;;;;9.40;5.85;;;;;;;26.04;73.05;99539.03;3602652;40;20087;-71
2021/07/02 06:29:41;;;;;;;8.10;6.40;;;;;;;26.36;72.53;99540.13;3603022;39;20033;-71
2021/07/02 06:32:07;;;;;;;12.77;5.72;;;;;;;26.75;69.67;99535.28;3601639;39;20037;-71
2021/07/02 06:39:52;;;;;;;9.37;5.43;;;;;;;26.96;66.80;99525.25;3580125;39;20041;-71
2021/07/02 06:42:18;;;;;;;7.80;4.75;;;;;;;27.16;65.07;99526.63;3580448;40;20355;-73
2021/07/02 06:44:43;;;;;;;7.97;5.10;;;;;;;27.64;65.50;99523.31;3579877;40;20446;-73
2021/07/02 06:47:09;;;;;;;7.97;4.97;;;;;;;28.04;63.88;99525.94;3579130;40;20167;-71
2021/07/02 06:49:34;;;;;;;9.77;5.25;;;;;;;27.36;65.00;99520.16;3568992;40;20038;-71
2021/07/02 06:52:00;;;;;;;9.30;5.22;;;;;;;27.94;65.74;99519.22;3569747;40;20040;-70
2021/07/02 06:54:25;;;;;;;7.10;5.15;;;;;;;27.72;65.76;99519.88;3569758;40;20038;-72
2021/07/02 06:57:00;;;;;;;8.23;5.68;;;;;;;27.49;65.30;99511.06;3580039;40;20119;-72
2021/07/02 06:59:27;;;;;;;14.77;6.22;;;;;;;27.89;63.68;99508.47;3570746;39;20076;-70
2021/07/02 07:01:54;;;;;;;10.40;5.03;;;;;;;27.19;64.67;99515.06;3580506;40;20462;-72
2021/07/02 07:04:20;;;;;;;11.93;5.65;;;;;;;27.89;64.78;99504.03;3580434;40;20063;-72
2021/07/02 07:06:46;;;;;;;12.57;5.80;;;;;;;28.25;63.80;99510.53;3580017;40;20030;-72
2021/07/02 07:09:11;;;;;;;10.50;5.80;;;;;;;28.56;65.42;99513.28;3580014;39;20426;-73
2021/07/02 07:14:06;;;;;;;12.63;6.18;;;;;;;28.33;65.74;99512.31;3577915;40;20094;-73
2021/07/02 07:16:32;;;;;;;9.57;6.82;;;;;;;28.21;67.50;99503.19;3570246;40;20422;-71
2021/07/02 07:18:58;;;;;;;10.10;6.38;;;;;;;28.53;66.23;99502.28;3579776;40;20029;-70
2021/07/02 07:21:23;;;;;;;11.75;6.25;;;;;;;28.21;66.50;99505.81;3579926;40;20086;-69
2021/07/02 07:23:49;;;;;;;11.23;6.38;;;;;;;27.77;65.94;99515.00;3580126;40;20525;-71
2021/07/02 07:26:14;;;;;;;11.57;6.45;;;;;;;28.57;63.57;99514.06;3570660;40;20447;-71
2021/07/02 07:28:40;;;;;;;12.38;6.80;;;;;;;28.18;65.02;99522.66;3579985;40;20086;-71
2021/07/02 07:31:06;;;;;;;12.38;5.97;;;;;;;28.45;62.73;99520.63;3580127;40;20040;-71
2021/07/02 07:33:34;;;;;;;9.68;6.63;;;;;;;28.54;62.86;99517.00;3579707;40;20972;-72
2021/07/02 07:36:00;;;;;;;8.95;6.10;;;;;;;28.49;63.66;99522.75;3579595;40;20038;-72
2021/07/02 07:38:25;;;;;;;11.20;7.07;;;;;;;28.86;63.54;99515.09;3579787;40;20420;-70
2021/07/02 07:40:52;;;;;;;11.07;6.75;;;;;;;28.99;63.80;99523.25;3579983;39;20037;-72
2021/07/02 07:43:18;;;;;;;13.70;6.82;;;;;;;29.42;61.05;99510.56;3571092;40;20088;-70
2021/07/02 07:45:44;;;;;;;10.60;6.80;;;;;;;28.72;63.58;99521.06;3580302;40;20447;-72
2021/07/02 07:48:09;;;;;;;11.32;6.53;;;;;;;28.80;63.12;99520.22;3580547;39;20066;-71
2021/07/02 07:50:49;;;;;;;11.98;6.20;;;;;;;29.85;61.05;99515.19;3580555;40;20042;-71
2021/07/02 07:53:14;;;;;;;9.07;6.38;;;;;;;29.09;61.11;99523.84;3580874;39;20034;-72
2021/07/02 07:58:09;;;;;;;11.18;7.07;;;;;;;29.50;61.54;99518.38;3579498;40;20332;-73
2021/07/02 08:05:33;;;;;;;9.10;5.80;;;;;;;29.24;62.25;99526.56;3589563;40;20216;-71
2021/07/02 08:17:56;;;;;;;12.63;6.35;;;;;;;30.45;59.09;99522.97;3588791;39;20061;-72
2021/07/02 08:20:21;;;;;;;11.65;6.90;;;;;;;29.98;59.15;99525.06;3589600;39;20415;-71
2021/07/02 08:22:46;;;;;;;9.90;6.22;;;;;;;29.69;58.41;99523.94;3589786;40;20040;-72
2021/07/02 08:25:12;;;;;;;7.80;6.07;;;;;;;29.61;58.50;99520.59;3590067;39;20082;-72
2021/07/02 08:30:22;;;;;;;8.98;5.80;;;;;;;30.09;56.88;99516.78;3589390;40;20082;-72
2021/07/02 08:32:48;;;;;;;10.90;5.18;;;;;;;29.97;55.34;99524.22;3588444;40;20041;-72
2021/07/02 08:35:15;;;;;;;7.75;4.82;;;;;;;30.51;55.98;99517.81;3578324;39;20041;-72
2021/07/02 08:37:41;;;;;;;9.23;5.50;;;;;;;30.68;55.39;99513.19;3588610;40;20407;-72
2021/07/02 08:40:07;;;;;;;9.02;5.00;;;;;;;30.23;54.50;99510.72;3588320;40;20041;-71
2021/07/02 08:42:33;;;;;;;10.05;4.82;;;;;;;31.10;52.22;99510.69;3588670;40;20083;-71
2021/07/02 08:44:58;;;;;;;9.18;5.07;;;;;;;31.16;53.75;99514.41;3588829;39;20396;-71
2021/07/02 08:47:24;;;;;;;8.57;5.03;;;;;;;30.23;53.59;99514.16;3588709;40;20026;-72
2021/07/02 08:49:50;;;;;;;6.95;4.50;;;;;;;29.85;55.32;99518.59;3588501;40;20091;-71
2021/07/02 08:52:15;;;;;;;9.90;5.03;;;;;;;30.88;54.65;99513.47;3588335;40;20037;-71
2021/07/02 08:54:41;;;;;;;8.68;5.20;;;;;;;30.78;52.14;99517.16;3587838;40;20037;-73
2021/07/02 08:57:06;;;;;;;8.32;4.55;;;;;;;31.53;50.85;99520.28;3587550;39;20297;-71
2021/07/02 08:59:32;;;;;;;7.18;4.20;;;;;;;30.76;52.23;99516.50;3587412;40;20033;-69
2021/07/02 09:01:58;;;;;;;9.68;4.70;;;;;;;30.55;52.49;99515.63;3588232;39;20037;-71
2021/07/02 09:04:25;;;;;;;7.97;4.30;;;;;;;30.74;51.06;99509.84;3587868;40;20044;-73
2021/07/02 09:07:04;;;;;;;6.90;4.60;;;;;;;30.83;51.01;99510.53;3587697;39;20037;-70
2021/07/02 09:09:51;;;;;;;7.63;4.32;;;;;;;31.20;50.42;99505.94;3577622;39;20021;-72
2021/07/02 09:12:22;;;;;;;6.88;3.50;;;;;;;31.61;48.37;99508.81;3587387;39;20311;-74
2021/07/02 09:15:04;;;;;;;6.47;3.80;;;;;;;31.05;49.58;99502.56;3588276;39;20422;-72
2021/07/02 09:17:51;;;;;;;10.27;3.70;;;;;;;30.83;49.15;99510.53;3577364;40;20429;-73
2021/07/02 09:20:19;;;;;;;5.68;3.58;;;;;;;31.72;47.28;99502.22;3538905;40;20991;-72
2021/07/02 09:22:53;;;;;;;7.78;3.10;;;;;;;31.90;46.77;99500.75;3547597;40;20118;-71
2021/07/02 09:25:21;;;;;;;11.65;4.40;;;;;;;31.35;47.49;99503.28;3539518;40;20042;-71
2021/07/02 09:27:47;;;;;;;5.30;3.47;;;;;;;31.60;48.82;99496.66;3548151;40;20074;-72
2021/07/02 09:30:18;;;;;;;4.90;3.00;;;;;;;31.42;47.35;99498.91;3547379;40;20143;-71
2021/07/02 09:32:45;;;;;;;;;;;;;;;32.04;46.07;99506.94;3583106;40;20384;-71
2021/07/02 09:35:12;;;;;;;6.18;3.00;;;;;;;31.88;45.67;99494.88;3548214;40;20328;-72
2021/07/02 09:37:43;;;;;;;10.48;4.07;;;;;;;31.23;48.05;99497.69;3548421;40;20505;-72
2021/07/02 09:40:14;;;;;;;7.43;3.70;;;;;;;31.19;47.80;99493.81;3548585;40;20027;-73
2021/07/02 09:42:40;;;;;;;4.53;3.60;;;;;;;31.66;46.99;99493.25;3549645;40;20101;-71
2021/07/02 09:45:17;;;;;;;7.43;3.45;;;;;;;32.07;45.78;99494.22;3550380;40;20041;-72
2021/07/02 09:47:44;;;;;;;8.02;3.72;;;;;;;31.81;46.54;99493.19;3550151;40;20424;-71
2021/07/02 09:50:28;;;;;;;7.15;3.83;;;;;;;32.38;45.96;99492.00;3585512;40;20043;-72
2021/07/02 09:52:57;;;;;;;6.03;3.80;;;;;;;32.33;45.89;99486.47;3587107;40;20040;-72
2021/07/02 09:55:28;;;;;;;6.97;3.50;;;;;;;32.30;45.69;99494.78;3550179;40;20096;-71
2021/07/02 09:58:01;;;;;;;;;;;;;;;31.59;45.98;99476.63;3573187;40;20033;-72
2021/07/02 10:00:26;;;;;;;6.38;3.40;;;;;;;32.54;45.74;99487.44;3580489;40;19944;-72
2021/07/02 10:02:54;;;;;;;6.30;3.40;;;;;;;31.73;46.56;99480.19;3580599;39;20026;-70
2021/07/02 10:05:20;;;;;;;7.32;3.63;;;;;;;31.48;48.13;99482.38;3579971;39;20341;-72
2021/07/02 10:08:03;;;;;;;8.77;3.97;;;;;;;31.21;46.46;99477.84;3578879;39;20045;-72
2021/07/02 10:10:30;;;;;;;5.70;3.55;;;;;;;31.53;47.05;99477.38;3580149;40;20053;-71
2021/07/02 10:12:58;;;;;;;6.82;3.60;;;;;;;31.69;47.22;99477.13;3580527;39;20328;-74
2021/07/02 10:15:25;;;;;;;8.15;3.55;;;;;;;31.92;45.71;99469.84;3580032;39;20139;-74
2021/07/02 10:17:52;;;;;;;5.43;3.65;;;;;;;32.63;45.41;99473.06;3583535;39;20022;-73
2021/07/02 10:20:17;;;;;;;5.95;3.60;;;;;;;31.60;47.21;99470.34;3578591;40;20057;-71
2021/07/02 10:22:46;;;;;;;8.82;3.58;;;;;;;31.85;46.28;99474.22;3578337;40;20037;-71
2021/07/02 10:25:13;;;;;;;6.43;4.10;;;;;;;33.03;45.19;99467.78;3570478;40;20034;-73
2021/07/02 10:27:39;;;;;;;6.40;3.75;;;;;;;32.65;44.06;99476.31;3570333;40;20361;-73
2021/07/02 10:30:07;;;;;;;7.10;3.40;;;;;;;32.76;44.24;99473.16;3570633;40;20041;-72
2021/07/02 10:32:33;;;;;;;6.80;3.20;;;;;;;31.97;45.04;99472.69;3570430;40;20030;-73
2021/07/02 10:34:59;;;;;;;5.93;3.00;;;;;;;32.21;44.33;99469.59;3569705;40;20196;-72
2021/07/02 10:37:26;;;;;;;5.95;2.80;;;;;;;32.76;43.51;99467.88;3567566;40;20424;-71
2021/07/02 10:39:53;;;;;;;5.30;3.15;;;;;;;32.23;43.98;99478.13;3568377;39;20045;-71
2021/07/02 10:42:19;;;;;;;6.75;3.33;;;;;;;31.49;45.37;99471.69;3569631;40;20037;-71
2021/07/02 10:44:53;;;;;;;5.97;2.90;;;;;;;32.08;43.46;99487.16;3570333;40;20030;-74
2021/07/02 10:47:23;;;;;;;7.50;3.25;;;;;;;32.69;43.21;99480.19;3570835;40;20058;-72
2021/07/02 10:49:50;;;;;;;7.60;2.90;;;;;;;31.62;45.15;99473.59;3570172;39;20428;-72
2021/07/02 10:52:31;;;;;;;4.50;2.80;;;;;;;32.29;43.87;99471.25;3570826;40;20080;-74
2021/07/02 10:54:57;;;;;;;7.70;3.53;;;;;;;32.28;43.30;99465.22;3570342;39;20024;-72
2021/07/02 10:57:26;;;;;;;4.82;2.78;;;;;;;32.90;43.05;99469.56;3569703;40;20745;-72
2021/07/02 10:59:52;;;;;;;6.22;2.72;;;;;;;31.88;44.83;99465.94;3569907;39;20408;-72
2021/07/02 11:02:22;;;;;;;5.47;3.05;;;;;;;32.07;44.88;99465.28;3569843;39;20037;-73
2021/07/02 11:04:51;;;;;;;11.93;3.20;;;;;;;32.07;43.18;99457.38;3570413;39;20038;-73
2021/07/02 11:07:21;;;;;;;5.85;2.88;;;;;;;31.75;43.57;99457.97;3569689;39;20022;-74
2021/07/02 11:20:33;;;;;;;8.50;2.85;;;;;;;32.26;42.99;99435.63;3579044;40;20087;-71
2021/07/02 11:23:01;;;;;;;3.03;2.50;;;;;;;32.14;44.10;99436.38;3570824;40;20030;-71
2021/07/02 11:25:42;;;;;;;5.90;2.42;;;;;;;32.60;43.38;99437.44;3580001;39;20308;-72
2021/07/02 11:28:09;;;;;;;5.10;2.50;;;;;;;32.20;43.08;99431.16;3580128;40;20065;-72
2021/07/02 11:30:43;;;;;;;7.13;2.90;;;;;;;32.22;43.22;99426.50;3579727;40;20083;-70
2021/07/02 11:33:09;;;;;;;3.20;2.60;;;;;;;33.01;42.97;99422.38;3579549;40;20030;-71
2021/07/02 11:35:38;;;;;;;6.90;2.70;;;;;;;32.30;42.67;99433.41;3578546;40;20036;-72
2021/07/02 11:38:06;;;;;;;5.07;2.40;;;;;;;32.18;42.61;99424.44;3578582;40;20475;-73
2021/07/02 11:40:33;;;;;;;3.10;2.40;;;;;;;32.28;42.78;99432.81;3577458;40;20060;-71
2021/07/02 11:42:59;;;;;;;5.70;2.45;;;;;;;32.61;42.82;99446.13;3578299;40;20034;-72
2021/07/02 11:45:57;;;;;;;3.47;2.45;;;;;;;32.96;42.28;99432.69;3578450;40;20033;-74
2021/07/02 11:48:25;;;;;;;2.95;2.20;;;;;;;32.83;42.01;99432.63;3578588;40;20038;-71
2021/07/02 11:51:00;;;;;;;2.60;2.40;;;;;;;32.43;41.85;99436.09;3578928;40;20029;-73
2021/07/02 11:53:36;;;;;;;5.70;2.35;;;;;;;31.92;42.31;99440.06;3579261;40;20062;-73
2021/07/02 11:56:06;;;;;;;3.55;2.50;;;;;;;32.67;41.86;99445.34;3578974;40;20359;-72
2021/07/02 11:58:38;;;;;;;4.10;2.20;;;;;;;32.01;42.43;99431.84;3578441;40;20029;-73
2021/07/02 12:01:08;;;;;;;4.40;2.30;;;;;;;32.17;41.80;99430.72;3578056;40;20078;-71
2021/07/02 12:03:34;;;;;;;3.65;2.28;;;;;;;32.13;42.18;99429.50;3578024;40;20044;-69
2021/07/02 12:06:01;;;;;;;7.47;2.60;;;;;;;32.81;40.65;99423.28;3577851;40;20087;-72
2021/07/02 12:08:29;;;;;;;5.55;2.45;;;;;;;33.47;40.44;99411.84;3578030;40;20038;-71
2021/07/02 12:11:05;;;;;;;5.78;2.65;;;;;;;32.23;42.50;99416.75;3577402;40;20077;-71
2021/07/02 12:13:34;;;;;;;6.63;2.30;;;;;;;32.24;41.21;99416.59;3577933;40;20037;-71
2021/07/02 12:16:12;;;;;;;4.30;2.17;;;;;;;32.91;39.77;99421.09;3576852;40;20351;-72
2021/07/02 12:19:12;;;;;;;3.92;2.20;;;;;;;32.38;40.29;99434.06;3579943;40;20047;-72
2021/07/02 12:21:38;;;;;;;3.60;2.10;;;;;;;32.54;39.38;99440.84;3587298;40;20021;-72
2021/07/02 12:24:06;;;;;;;3.17;2.22;;;;;;;32.58;39.87;99443.91;3588034;40;20041;-71
2021/07/02 12:26:34;;;;;;;4.00;2.45;;;;;;;32.51;41.27;99456.25;3577957;39;20491;-72
2021/07/02 12:29:13;;;;;;;5.30;2.15;;;;;;;32.83;40.13;99442.34;3578081;39;20040;-75
2021/07/02 12:31:43;;;;;;;6.22;2.53;;;;;;;32.60;40.21;99462.94;3587028;40;20072;-72
2021/07/02 12:34:20;;;;;;;3.85;2.85;;;;;;;31.49;41.86;99452.47;3578282;39;20419;-72
2021/07/02 12:37:07;;;;;;;4.93;2.13;;;;;;;32.86;39.32;99458.56;3587076;40;20045;-71
2021/07/02 12:39:44;;;;;;;2.97;2.25;;;;;;;32.19;39.15;99462.94;3588195;40;20033;-73
2021/07/02 12:42:20;;;;;;;5.03;2.20;;;;;;;32.05;39.63;99450.69;3588574;39;20480;-72
2021/07/02 12:44:59;;;;;;;3.70;2.28;;;;;;;31.94;40.04;99452.03;3588918;40;20086;-72
2021/07/02 12:47:28;;;;;;;6.93;2.33;;;;;;;31.98;39.68;99441.94;3588973;40;20415;-72
2021/07/02 12:49:57;;;;;;;3.83;2.10;;;;;;;32.55;39.80;99439.00;3588543;39;20394;-72
2021/07/02 12:54:56;;;;;;;4.47;2.38;;;;;;;31.64;41.30;99434.78;3588428;39;20053;-71
2021/07/02 12:57:31;;;;;;;3.00;2.45;;;;;;;32.02;40.42;99430.03;3588462;40;20041;-72
2021/07/02 13:00:20;;;;;;;3.80;2.33;;;;;;;32.02;41.16;99435.28;3588180;39;20029;-71
2021/07/02 13:02:46;;;;;;;2.78;2.10;;;;;;;32.26;41.88;99437.44;3547126;40;20043;-72
2021/07/02 13:05:22;;;;;;;3.88;2.15;;;;;;;31.59;43.00;99435.34;3547592;40;20042;-73
2021/07/02 13:07:59;;;;;;;5.38;2.50;;;;;;;32.04;42.72;99443.78;3539877;40;20047;-72
2021/07/02 13:10:27;;;;;;;3.67;2.53;;;;;;;31.96;41.92;99457.91;3539592;40;20337;-72
2021/07/02 13:13:00;;;;;;;3.75;2.47;;;;;;;31.34;42.60;99463.03;3546435;40;20372;-74
2021/07/02 13:15:25;;;;;;;5.75;2.70;;;;;;;30.73;43.70;99471.44;3538009;40;20480;-70
2021/07/02 13:17:51;;;;;;;2.88;2.67;;;;;;;30.67;44.20;99470.38;3547100;40;20032;-72
2021/07/02 13:23:03;;;;;;;4.20;2.78;;;;;;;30.32;46.74;99465.06;3587479;39;20465;-71
2021/07/02 13:25:29;;;;;;;4.38;2.70;;;;;;;30.66;46.41;99466.09;3586899;40;20110;-72
2021/07/02 13:27:56;;;;;;;3.67;2.67;;;;;;;30.00;47.53;99458.31;3587899;40;20044;-72
2021/07/02 13:30:31;;;;;;;9.70;2.92;;;;;;;30.08;47.89;99460.88;3588161;40;20040;-72
2021/07/02 13:33:07;;;;;;;4.57;2.90;;;;;;;29.89;49.16;99450.91;3579294;40;20102;-72
2021/07/02 13:35:33;;;;;;;6.15;2.95;;;;;;;29.80;49.00;99438.84;3587181;40;20388;-71
2021/07/02 13:38:01;;;;;;;5.00;2.83;;;;;;;29.33;50.03;99438.25;3587267;40;20025;-70